createdAt,value
2022-11-03T00:01:40.531Z,100.00
2022-11-03T00:04:10.928Z,100.00
2022-11-03T00:06:40.650Z,100.00
2022-11-03T00:09:10.925Z,100.00
2022-11-03T00:11:41.751Z,100.00
2022-11-03T00:14:12.005Z,100.00
2022-11-03T00:16:41.885Z,100.00
2022-11-03T00:19:11.955Z,100.00
2022-11-03T00:21:41.925Z,100.00
2022-11-03T00:24:12.768Z,100.00
2022-11-03T00:26:42.476Z,100.00
2022-11-03T00:29:12.745Z,100.00
2022-11-03T00:31:42.975Z,100.00
2022-11-03T00:34:12.817Z,100.00
2022-11-03T00:36:43.050Z,100.00
2022-11-03T00:39:13.100Z,100.00
2022-11-03T00:41:43.072Z,100.00
2022-11-03T00:44:13.606Z,100.00
2022-11-03T00:46:43.494Z,100.00
2022-11-03T00:49:13.370Z,100.00
2022-11-03T00:51:43.151Z,100.00
2022-11-03T00:54:12.949Z,100.00
2022-11-03T00:56:44.584Z,100.00
2022-11-03T00:59:14.427Z,100.00
2022-11-03T01:01:47.307Z,100.00
2022-11-03T01:04:35.288Z,100.00
2022-11-03T01:07:06.249Z,100.00
2022-11-03T01:09:38.620Z,100.00
2022-11-03T01:12:09.532Z,100.00
2022-11-03T01:14:39.897Z,100.00
2022-11-03T01:17:10.507Z,100.00
2022-11-03T01:19:40.185Z,100.00
2022-11-03T01:22:11.027Z,100.00
2022-11-03T01:24:41.566Z,100.00
2022-11-03T01:27:11.551Z,100.00
2022-11-03T01:29:41.495Z,100.00
2022-11-03T01:32:11.275Z,100.00
2022-11-03T01:34:41.227Z,100.00
2022-11-03T01:37:10.936Z,100.00
2022-11-03T01:39:40.706Z,100.00
2022-11-03T01:42:12.011Z,100.00
2022-11-03T01:44:42.866Z,100.00
2022-11-03T01:47:14.807Z,100.00
2022-11-03T01:49:45.953Z,100.00
2022-11-03T01:52:17.127Z,100.00
2022-11-03T01:54:47.693Z,100.00
2022-11-03T01:57:18.466Z,100.00
2022-11-03T01:59:48.673Z,100.00
2022-11-03T02:02:20.116Z,100.00
2022-11-03T02:04:49.986Z,100.00
2022-11-03T02:07:21.077Z,100.00
2022-11-03T02:09:51.019Z,100.00
2022-11-03T02:12:20.830Z,100.00
2022-11-03T02:14:52.760Z,100.00
2022-11-03T02:17:22.912Z,100.00
2022-11-03T02:19:53.415Z,100.00
2022-11-03T02:22:35.945Z,100.00
2022-11-03T02:25:07.410Z,100.00
2022-11-03T02:27:37.425Z,100.00
2022-11-03T02:30:08.110Z,100.00
2022-11-03T02:32:39.913Z,100.00
2022-11-03T02:35:10.510Z,100.00
2022-11-03T02:37:42.274Z,100.00
2022-11-03T02:40:14.433Z,100.00
2022-11-03T02:42:44.439Z,100.00
2022-11-03T02:45:17.383Z,100.00
2022-11-03T02:47:47.771Z,100.00
2022-11-03T02:50:17.813Z,100.00
2022-11-03T02:52:48.335Z,100.00
2022-11-03T02:55:19.676Z,100.00
2022-11-03T02:57:51.653Z,100.00
2022-11-03T03:00:21.896Z,100.00
2022-11-03T03:02:54.234Z,100.00
2022-11-03T03:05:24.571Z,100.00
2022-11-03T03:07:54.884Z,100.00
2022-11-03T03:10:25.286Z,100.00
2022-11-03T03:12:55.916Z,100.00
2022-11-03T03:15:27.178Z,100.00
2022-11-03T03:17:58.753Z,100.00
2022-11-03T03:20:30.112Z,100.00
2022-11-03T03:23:00.564Z,100.00
2022-11-03T03:25:30.621Z,100.00
2022-11-03T03:28:01.060Z,100.00
2022-11-03T03:30:30.907Z,100.00
2022-11-03T03:33:00.852Z,100.00
2022-11-03T03:35:31.321Z,100.00
2022-11-03T03:38:02.416Z,100.00
2022-11-03T03:40:32.484Z,100.00
2022-11-03T03:43:02.459Z,100.00
2022-11-03T03:45:32.396Z,100.00
2022-11-03T03:48:02.382Z,100.00
2022-11-03T03:50:33.211Z,100.00
2022-11-03T03:53:03.437Z,100.00
2022-11-03T03:55:35.756Z,100.00
2022-11-03T03:58:06.078Z,100.00
2022-11-03T04:00:35.943Z,100.00
2022-11-03T04:03:05.755Z,100.00
2022-11-03T04:05:35.658Z,100.00
2022-11-03T04:08:06.203Z,100.00
2022-11-03T04:10:36.419Z,100.00
2022-11-03T04:13:23.847Z,100.00
2022-11-03T04:16:11.381Z,100.00
2022-11-03T04:18:58.799Z,100.00
2022-11-03T04:22:00.768Z,100.00
2022-11-03T04:24:30.767Z,100.00
2022-11-03T04:27:02.515Z,100.00
2022-11-03T04:29:32.430Z,100.00
2022-11-03T04:32:02.395Z,100.00
2022-11-03T04:34:32.546Z,100.00
2022-11-03T04:37:02.603Z,100.00
2022-11-03T04:39:32.537Z,100.00
2022-11-03T04:42:02.774Z,100.00
2022-11-03T04:44:32.854Z,100.00
2022-11-03T04:47:02.659Z,100.00
2022-11-03T04:49:32.594Z,100.00
2022-11-03T04:52:02.700Z,100.00
2022-11-03T04:54:32.600Z,100.00
2022-11-03T04:57:02.767Z,100.00
2022-11-03T04:59:32.692Z,100.00
2022-11-03T05:02:02.683Z,100.00
2022-11-03T05:04:32.901Z,100.00
2022-11-03T05:07:03.046Z,100.00
2022-11-03T05:09:33.021Z,100.00
2022-11-03T05:12:03.412Z,100.00
2022-11-03T05:14:33.556Z,100.00
2022-11-03T05:17:03.498Z,100.00
2022-11-03T05:19:34.048Z,100.00
2022-11-03T05:22:04.160Z,100.00
2022-11-03T05:24:34.014Z,100.00
2022-11-03T05:27:03.864Z,100.00
2022-11-03T05:29:38.427Z,100.00
2022-11-03T05:32:11.423Z,100.00
2022-11-03T05:34:42.934Z,100.00
2022-11-03T05:37:26.110Z,100.00
2022-11-03T05:39:58.167Z,100.00
2022-11-03T05:42:30.213Z,100.00
2022-11-03T05:45:00.195Z,100.00
2022-11-03T05:47:31.744Z,100.00
2022-11-03T05:50:03.580Z,100.00
2022-11-03T05:52:33.319Z,100.00
2022-11-03T05:55:03.204Z,100.00
2022-11-03T05:57:40.198Z,100.00
2022-11-03T06:00:21.548Z,100.00
2022-11-03T06:02:51.540Z,100.00
2022-11-03T06:05:21.927Z,100.00
2022-11-03T06:07:52.355Z,100.00
2022-11-03T06:10:25.243Z,100.00
2022-11-03T06:12:56.536Z,100.00
2022-11-03T06:15:28.875Z,100.00
2022-11-03T06:17:59.078Z,100.00
2022-11-03T06:20:29.087Z,100.00
2022-11-03T06:22:58.987Z,100.00
2022-11-03T06:25:30.684Z,100.00
2022-11-03T06:28:01.424Z,100.00
2022-11-03T06:30:31.680Z,100.00
2022-11-03T06:33:01.978Z,100.00
2022-11-03T06:35:32.207Z,100.00
2022-11-03T06:38:02.476Z,100.00
2022-11-03T06:40:41.823Z,100.00
2022-11-03T06:43:13.935Z,100.00
2022-11-03T06:45:46.604Z,100.00
2022-11-03T06:48:16.788Z,100.00
2022-11-03T06:50:47.668Z,100.00
2022-11-03T06:53:17.860Z,100.00
2022-11-03T06:55:48.303Z,100.00
2022-11-03T06:58:18.898Z,100.00
2022-11-03T07:00:51.246Z,100.00
2022-11-03T07:03:22.721Z,100.00
2022-11-03T07:05:52.846Z,100.00
2022-11-03T07:08:24.290Z,100.00
2022-11-03T07:10:56.760Z,100.00
2022-11-03T07:13:26.630Z,100.00
2022-11-03T07:15:56.554Z,100.00
2022-11-03T07:18:27.456Z,100.00
2022-11-03T07:20:57.245Z,100.00
2022-11-03T07:23:28.703Z,100.00
2022-11-03T07:26:00.491Z,100.00
2022-11-03T07:28:33.153Z,100.00
2022-11-03T07:31:03.747Z,100.00
2022-11-03T07:33:34.297Z,100.00
2022-11-03T07:36:20.239Z,100.00
2022-11-03T07:38:51.211Z,100.00
2022-11-03T07:41:21.991Z,100.00
2022-11-03T07:43:55.021Z,100.00
2022-11-03T07:46:24.940Z,99.42
2022-11-03T07:48:55.288Z,98.58
2022-11-03T07:51:26.381Z,98.05
2022-11-03T07:53:56.660Z,98.01
2022-11-03T07:56:27.147Z,97.46
2022-11-03T07:58:57.510Z,96.75
2022-11-03T08:01:31.428Z,96.56
2022-11-03T08:04:02.298Z,96.18
2022-11-03T08:06:32.355Z,96.44
2022-11-03T08:09:02.470Z,96.38
2022-11-03T08:11:32.544Z,93.64
2022-11-03T08:14:02.502Z,93.83
2022-11-03T08:16:32.505Z,94.07
2022-11-03T08:19:02.698Z,94.01
2022-11-03T08:21:32.555Z,93.46
2022-11-03T08:24:02.748Z,91.83
2022-11-03T08:26:32.922Z,90.06
2022-11-03T08:29:02.659Z,91.97
2022-11-03T08:31:33.029Z,92.77
2022-11-03T08:34:02.738Z,91.44
2022-11-03T08:36:32.663Z,91.23
2022-11-03T08:39:02.576Z,90.57
2022-11-03T08:41:32.623Z,90.71
2022-11-03T08:44:02.458Z,91.35
2022-11-03T08:46:32.932Z,91.29
2022-11-03T08:49:02.839Z,91.17
2022-11-03T08:51:32.989Z,89.78
2022-11-03T08:54:02.747Z,89.42
2022-11-03T08:56:33.055Z,90.32
2022-11-03T08:59:03.369Z,90.66
2022-11-03T09:01:34.170Z,91.12
2022-11-03T09:04:05.282Z,90.39
2022-11-03T09:06:36.652Z,89.40
2022-11-03T09:11:57.669Z,87.21
2022-11-03T09:14:28.719Z,87.09
2022-11-03T09:16:59.219Z,84.68
2022-11-03T09:19:29.280Z,84.34
2022-11-03T09:22:00.148Z,85.23
2022-11-03T09:24:31.174Z,86.00
2022-11-03T09:27:02.593Z,85.81
2022-11-03T09:29:51.716Z,86.53
2022-11-03T09:32:23.667Z,85.87
2022-11-03T09:34:54.012Z,84.56
2022-11-03T09:37:24.403Z,84.75
2022-11-03T09:39:54.413Z,83.77
2022-11-03T09:42:24.877Z,81.24
2022-11-03T09:44:55.449Z,81.35
2022-11-03T09:47:26.362Z,82.06
2022-11-03T09:49:57.570Z,80.50
2022-11-03T09:52:27.997Z,81.22
2022-11-03T09:54:59.991Z,80.21
2022-11-03T09:57:30.372Z,79.20
2022-11-03T10:00:01.078Z,76.63
2022-11-03T10:02:32.070Z,76.49
2022-11-03T10:05:08.238Z,78.73
2022-11-03T10:07:41.393Z,77.48
2022-11-03T10:10:14.745Z,75.78
2022-11-03T10:12:45.135Z,75.93
2022-11-03T10:15:17.225Z,74.75
2022-11-03T10:17:47.273Z,73.89
2022-11-03T10:20:18.030Z,73.87
2022-11-03T10:22:48.187Z,71.03
2022-11-03T10:25:35.431Z,71.15
2022-11-03T10:28:15.703Z,71.10
2022-11-03T10:33:43.253Z,68.66
2022-11-03T10:36:26.407Z,68.63
2022-11-03T10:38:56.585Z,69.38
2022-11-03T10:41:26.834Z,69.20
2022-11-03T10:44:03.744Z,68.35
2022-11-03T10:46:49.620Z,67.95
2022-11-03T10:49:21.318Z,67.86
2022-11-03T10:51:52.609Z,67.73
2022-11-03T10:54:23.297Z,67.53
2022-11-03T10:56:53.434Z,68.01
2022-11-03T10:59:24.180Z,68.30
2022-11-03T11:01:55.093Z,68.08
2022-11-03T11:04:26.404Z,67.68
2022-11-03T11:06:56.277Z,67.73
2022-11-03T11:09:26.824Z,67.73
2022-11-03T11:12:04.424Z,67.32
2022-11-03T11:14:39.526Z,67.61
2022-11-03T11:17:17.049Z,67.11
2022-11-03T11:20:04.644Z,66.54
2022-11-03T11:22:34.765Z,66.63
2022-11-03T11:25:05.162Z,66.63
2022-11-03T11:27:48.374Z,66.61
2022-11-03T11:30:31.766Z,66.41
2022-11-03T11:33:01.695Z,66.80
2022-11-03T11:35:49.023Z,66.21
2022-11-03T11:38:36.353Z,66.55
2022-11-03T11:41:06.392Z,66.16
2022-11-03T11:43:36.316Z,66.71
2022-11-03T11:46:24.028Z,67.06
2022-11-03T11:48:54.130Z,67.56
2022-11-03T11:51:23.808Z,67.34
2022-11-03T11:54:16.219Z,67.54
2022-11-03T11:56:44.455Z,67.82
2022-11-03T11:59:24.017Z,67.81
2022-11-03T12:01:55.594Z,67.76
2022-11-03T12:04:25.793Z,67.52
2022-11-03T12:06:56.178Z,67.39
2022-11-03T12:09:27.298Z,67.65
2022-11-03T12:11:59.398Z,67.75
2022-11-03T12:14:35.520Z,68.23
2022-11-03T12:17:18.716Z,67.91
2022-11-03T12:19:48.783Z,68.17
2022-11-03T12:22:31.973Z,68.33
2022-11-03T12:25:01.839Z,68.41
2022-11-03T12:27:44.619Z,68.50
2022-11-03T12:30:18.999Z,68.67
2022-11-03T12:32:49.095Z,68.89
2022-11-03T12:35:18.768Z,69.00
2022-11-03T12:37:48.576Z,69.12
2022-11-03T12:40:18.554Z,69.18
2022-11-03T12:42:48.337Z,69.34
2022-11-03T12:45:18.281Z,69.31
2022-11-03T12:47:47.952Z,69.29
2022-11-03T12:50:18.410Z,69.32
2022-11-03T12:52:48.300Z,69.37
2022-11-03T12:55:18.214Z,69.49
2022-11-03T12:57:48.229Z,69.65
2022-11-03T13:00:19.402Z,69.80
2022-11-03T13:02:50.820Z,69.94
2022-11-03T13:05:21.259Z,70.15
2022-11-03T13:07:51.081Z,70.27
2022-11-03T13:10:20.909Z,70.43
2022-11-03T13:12:50.955Z,70.55
2022-11-03T13:15:20.710Z,70.72
2022-11-03T13:20:40.361Z,71.00
2022-11-03T13:23:10.421Z,71.25
2022-11-03T13:25:40.473Z,71.48
2022-11-03T13:28:10.505Z,71.39
2022-11-03T13:30:41.602Z,71.43
2022-11-03T13:33:11.601Z,71.55
2022-11-03T13:35:41.579Z,71.74
2022-11-03T13:38:11.444Z,71.94
2022-11-03T13:40:59.364Z,72.23
2022-11-03T13:43:31.248Z,72.28
2022-11-03T13:46:02.875Z,72.68
2022-11-03T13:51:22.547Z,73.02
2022-11-03T13:59:32.646Z,73.63
2022-11-03T14:04:52.746Z,73.73
2022-11-03T14:07:22.479Z,74.06
2022-11-03T14:09:52.439Z,74.22
2022-11-03T14:12:37.037Z,74.06
2022-11-03T14:15:07.794Z,74.13
2022-11-03T14:17:37.731Z,74.05
2022-11-03T14:20:10.006Z,74.19
2022-11-03T14:22:39.718Z,74.40
2022-11-03T14:25:10.249Z,74.44
2022-11-03T14:27:40.177Z,74.51
2022-11-03T14:30:11.638Z,74.57
2022-11-03T14:32:42.030Z,74.56
2022-11-03T14:35:12.214Z,74.58
2022-11-03T14:37:42.111Z,74.67
2022-11-03T14:40:34.448Z,74.78
2022-11-03T14:43:04.710Z,75.26
2022-11-03T14:45:37.050Z,75.89
2022-11-03T14:48:10.048Z,77.03
2022-11-03T14:50:40.698Z,77.16
2022-11-03T14:53:10.804Z,77.65
2022-11-03T14:55:41.087Z,77.96
2022-11-03T14:58:11.494Z,77.97
2022-11-03T15:00:41.715Z,77.88
2022-11-03T15:03:11.883Z,77.47
2022-11-03T15:05:48.882Z,76.75
2022-11-03T15:08:19.439Z,76.64
2022-11-03T15:10:50.081Z,76.56
2022-11-03T15:13:20.529Z,76.51
2022-11-03T15:15:51.102Z,76.77
2022-11-03T15:18:21.656Z,77.02
2022-11-03T15:20:52.276Z,77.30
2022-11-03T15:26:13.127Z,78.32
2022-11-03T15:28:44.035Z,79.36
2022-11-03T15:31:14.120Z,80.97
2022-11-03T15:33:44.453Z,82.19
2022-11-03T15:36:15.003Z,81.95
2022-11-03T15:38:44.914Z,82.23
2022-11-03T15:41:19.851Z,82.89
2022-11-03T15:43:49.874Z,83.98
2022-11-03T15:46:21.183Z,84.52
2022-11-03T15:48:51.211Z,84.82
2022-11-03T15:51:21.845Z,84.74
2022-11-03T15:53:56.932Z,84.66
2022-11-03T15:56:28.292Z,84.59
2022-11-03T15:58:58.175Z,84.53
2022-11-03T16:01:28.254Z,84.49
2022-11-03T16:03:58.132Z,84.47
2022-11-03T16:06:53.735Z,84.67
2022-11-03T16:09:18.091Z,84.99
2022-11-03T16:11:47.853Z,85.69
2022-11-03T16:14:17.567Z,85.74
2022-11-03T16:16:47.375Z,88.11
2022-11-03T16:19:17.096Z,91.34
2022-11-03T16:21:46.870Z,91.24
2022-11-03T16:24:16.543Z,91.07
2022-11-03T16:26:46.328Z,91.02
2022-11-03T16:29:16.095Z,90.36
2022-11-03T16:31:48.635Z,89.69
2022-11-03T16:34:18.620Z,89.66
2022-11-03T16:36:48.448Z,89.63
2022-11-03T16:39:18.204Z,89.40
2022-11-03T16:41:48.174Z,89.20
2022-11-03T16:44:17.951Z,89.80
2022-11-03T16:46:47.959Z,90.70
2022-11-03T16:49:17.836Z,91.11
2022-11-03T16:51:47.695Z,91.53
2022-11-03T16:54:17.821Z,91.79
2022-11-03T16:56:53.435Z,91.84
2022-11-03T16:59:26.678Z,92.57
2022-11-03T17:01:57.369Z,92.69
2022-11-03T17:04:28.053Z,92.50
2022-11-03T17:06:58.307Z,92.50
2022-11-03T17:09:28.303Z,93.09
2022-11-03T17:11:58.273Z,93.83
2022-11-03T17:14:28.188Z,94.13
2022-11-03T17:17:01.101Z,94.06
2022-11-03T17:19:30.999Z,94.48
2022-11-03T17:22:01.042Z,94.81
2022-11-03T17:24:30.850Z,95.26
2022-11-03T17:27:01.154Z,95.35
2022-11-03T17:29:33.111Z,95.31
2022-11-03T17:32:03.179Z,95.63
2022-11-03T17:34:33.138Z,96.08
2022-11-03T17:37:02.957Z,96.58
2022-11-03T17:39:34.530Z,96.78
2022-11-03T17:42:05.915Z,96.57
2022-11-03T17:44:35.756Z,96.27
2022-11-03T17:47:05.825Z,96.54
2022-11-03T17:49:35.722Z,96.92
2022-11-03T17:52:05.686Z,97.43
2022-11-03T17:54:35.611Z,97.95
2022-11-03T17:57:05.685Z,98.06
2022-11-03T17:59:35.976Z,98.78
2022-11-03T18:02:06.085Z,98.54
2022-11-03T18:04:35.948Z,98.46
2022-11-03T18:07:20.657Z,98.89
2022-11-03T18:09:50.683Z,99.51
2022-11-03T18:12:38.275Z,100.00
2022-11-03T18:15:09.721Z,100.00
2022-11-03T18:17:39.500Z,100.00
2022-11-03T18:20:13.808Z,100.00
2022-11-03T18:22:43.805Z,100.00
2022-11-03T18:25:16.129Z,100.00
2022-11-03T18:27:45.862Z,100.00
2022-11-03T18:30:17.860Z,100.00
2022-11-03T18:32:48.477Z,100.00
2022-11-03T18:35:19.103Z,100.00
2022-11-03T18:37:49.123Z,100.00
2022-11-03T18:40:21.097Z,100.00
2022-11-03T18:42:51.090Z,100.00
2022-11-03T18:45:22.402Z,100.00
2022-11-03T18:47:52.252Z,100.00
2022-11-03T18:50:21.929Z,100.00
2022-11-03T18:52:52.383Z,100.00
2022-11-03T18:55:22.149Z,100.00
2022-11-03T18:57:52.212Z,100.00
2022-11-03T19:00:23.550Z,100.00
2022-11-03T19:02:53.430Z,100.00
2022-11-03T19:05:23.730Z,100.00
2022-11-03T19:07:54.038Z,100.00
2022-11-03T19:10:25.539Z,100.00
2022-11-03T19:12:55.455Z,100.00
2022-11-03T19:15:26.305Z,100.00
2022-11-03T19:17:57.924Z,100.00
2022-11-03T19:20:27.859Z,100.00
2022-11-03T19:22:58.049Z,100.00
2022-11-03T19:25:28.042Z,100.00
2022-11-03T19:27:57.786Z,100.00
2022-11-03T19:30:27.610Z,100.00
2022-11-03T19:32:57.526Z,100.00
2022-11-03T19:35:27.516Z,100.00
2022-11-03T19:37:59.289Z,100.00
2022-11-03T19:40:29.205Z,100.00
2022-11-03T19:42:59.147Z,100.00
2022-11-03T19:45:29.336Z,100.00
2022-11-03T19:50:49.891Z,100.00
2022-11-03T19:53:20.878Z,100.00
2022-11-03T19:55:50.810Z,100.00
2022-11-03T19:58:20.984Z,100.00
2022-11-03T20:00:50.804Z,100.00
2022-11-03T20:03:22.391Z,100.00
2022-11-03T20:05:53.684Z,100.00
2022-11-03T20:08:23.881Z,100.00
2022-11-03T20:10:53.829Z,100.00
2022-11-03T20:13:23.946Z,100.00
2022-11-03T20:16:00.491Z,100.00
2022-11-03T20:18:31.348Z,100.00
2022-11-03T20:21:01.374Z,100.00
2022-11-03T20:23:32.026Z,100.00
2022-11-03T20:26:02.117Z,100.00
2022-11-03T20:28:32.592Z,100.00
2022-11-03T20:31:04.133Z,100.00
2022-11-03T20:33:33.847Z,100.00
2022-11-03T20:36:04.633Z,100.00
2022-11-03T20:38:34.776Z,100.00
2022-11-03T20:41:05.342Z,100.00
2022-11-03T20:43:37.354Z,100.00
2022-11-03T20:46:08.291Z,100.00
2022-11-03T20:48:38.298Z,100.00
2022-11-03T20:51:08.474Z,100.00
2022-11-03T20:53:38.145Z,100.00
2022-11-03T20:56:10.233Z,100.00
2022-11-03T20:58:40.013Z,100.00
2022-11-03T21:01:12.176Z,100.00
2022-11-03T21:03:58.691Z,100.00
2022-11-03T21:06:29.534Z,100.00
2022-11-03T21:08:59.259Z,100.00
2022-11-03T21:11:30.017Z,100.00
2022-11-03T21:14:00.478Z,100.00
2022-11-03T21:16:48.148Z,100.00
2022-11-03T21:19:35.785Z,100.00
2022-11-03T21:22:07.525Z,100.00
2022-11-03T21:24:37.637Z,100.00
2022-11-03T21:27:07.570Z,100.00
2022-11-03T21:29:58.545Z,100.00
2022-11-03T21:32:27.681Z,100.00
2022-11-03T21:34:57.437Z,100.00
2022-11-03T21:37:27.204Z,100.00
2022-11-03T21:39:57.090Z,100.00
2022-11-03T21:42:44.618Z,100.00
2022-11-03T21:45:15.011Z,100.00
2022-11-03T21:48:08.663Z,100.00
2022-11-03T21:50:42.122Z,100.00
2022-11-03T21:53:12.369Z,100.00
2022-11-03T21:55:42.548Z,100.00
2022-11-03T21:58:12.269Z,100.00
2022-11-03T22:00:42.754Z,100.00
2022-11-03T22:03:12.730Z,100.00
2022-11-03T22:05:42.984Z,100.00
2022-11-03T22:08:13.459Z,100.00
2022-11-03T22:10:43.949Z,100.00
2022-11-03T22:13:13.701Z,100.00
2022-11-03T22:16:02.170Z,100.00
2022-11-03T22:18:31.958Z,100.00
2022-11-03T22:21:20.033Z,100.00
2022-11-03T22:24:07.858Z,100.00
2022-11-03T22:26:55.469Z,100.00
2022-11-03T22:29:42.958Z,100.00
2022-11-03T22:32:16.392Z,100.00
2022-11-03T22:35:03.854Z,100.00
2022-11-03T22:40:20.240Z,100.00
2022-11-03T22:43:08.379Z,100.00
2022-11-03T22:45:55.376Z,100.00
2022-11-03T22:48:25.662Z,100.00
2022-11-03T22:50:59.688Z,100.00
2022-11-03T22:53:46.987Z,100.00
2022-11-03T22:56:17.195Z,100.00
2022-11-03T22:58:47.034Z,100.00
2022-11-03T23:01:18.146Z,100.00
2022-11-03T23:03:48.301Z,100.00
2022-11-03T23:06:18.991Z,100.00
2022-11-03T23:08:49.162Z,100.00
2022-11-03T23:11:19.526Z,100.00
2022-11-03T23:13:49.952Z,100.00
2022-11-03T23:16:22.586Z,100.00
2022-11-03T23:19:10.136Z,100.00
2022-11-03T23:21:40.177Z,100.00
2022-11-03T23:24:27.810Z,100.00
2022-11-03T23:26:59.878Z,100.00
2022-11-03T23:29:29.677Z,100.00
2022-11-03T23:32:00.932Z,100.00
2022-11-03T23:34:31.027Z,100.00
2022-11-03T23:37:01.673Z,100.00
2022-11-03T23:39:31.576Z,100.00
2022-11-03T23:42:01.623Z,100.00
2022-11-03T23:44:51.504Z,100.00
2022-11-03T23:47:40.942Z,100.00
2022-11-03T23:50:11.318Z,100.00
2022-11-03T23:52:41.044Z,100.00
2022-11-03T23:55:11.082Z,100.00
2022-11-03T23:57:58.756Z,100.00
